sensor_id;sensor_type;location;lat;lon;timestamp;P1;durP1;ratioP1;P2;durP2;ratioP2
21777;SDS011;11050;52.222;20.916;2022-08-26T00:01:39;12.48;;;5.20;;
21777;SDS011;11050;52.222;20.916;2022-08-26T00:04:07;7.05;;;4.22;;
21777;SDS011;11050;52.222;20.916;2022-08-26T00:06:35;8.05;;;4.22;;
21777;SDS011;11050;52.222;20.916;2022-08-26T00:09:02;7.90;;;5.00;;
21777;SDS011;11050;52.222;20.916;2022-08-26T00:11:29;13.05;;;4.57;;
21777;SDS011;11050;52.222;20.916;2022-08-26T00:13:55;13.10;;;5.18;;
21777;SDS011;11050;52.222;20.916;2022-08-26T00:16:25;8.77;;;4.65;;
21777;SDS011;11050;52.222;20.916;2022-08-26T00:18:53;15.82;;;4.65;;
21777;SDS011;11050;52.222;20.916;2022-08-26T00:21:20;12.75;;;5.13;;
21777;SDS011;11050;52.222;20.916;2022-08-26T00:23:46;10.85;;;5.03;;
21777;SDS011;11050;52.222;20.916;2022-08-26T00:26:12;13.00;;;4.43;;
21777;SDS011;11050;52.222;20.916;2022-08-26T00:28:38;6.60;;;4.57;;
21777;SDS011;11050;52.222;20.916;2022-08-26T00:31:05;13.23;;;4.90;;
21777;SDS011;11050;52.222;20.916;2022-08-26T00:33:31;10.07;;;4.65;;
21777;SDS011;11050;52.222;20.916;2022-08-26T00:35:57;11.15;;;4.70;;
21777;SDS011;11050;52.222;20.916;2022-08-26T00:38:23;8.98;;;4.72;;
21777;SDS011;11050;52.222;20.916;2022-08-26T00:40:51;11.20;;;4.90;;
21777;SDS011;11050;52.222;20.916;2022-08-26T00:43:19;11.23;;;4.55;;
21777;SDS011;11050;52.222;20.916;2022-08-26T00:45:51;8.82;;;4.47;;
21777;SDS011;11050;52.222;20.916;2022-08-26T00:48:41;6.80;;;4.15;;
21777;SDS011;11050;52.222;20.916;2022-08-26T00:51:14;10.70;;;3.90;;
21777;SDS011;11050;52.222;20.916;2022-08-26T00:53:47;10.13;;;4.75;;
21777;SDS011;11050;52.222;20.916;2022-08-26T00:56:29;8.25;;;4.55;;
21777;SDS011;11050;52.222;20.916;2022-08-26T00:59:05;11.63;;;5.13;;
21777;SDS011;11050;52.222;20.916;2022-08-26T01:01:36;7.80;;;4.50;;
21777;SDS011;11050;52.222;20.916;2022-08-26T01:04:05;12.07;;;4.40;;
21777;SDS011;11050;52.222;20.916;2022-08-26T01:06:32;8.55;;;4.32;;
21777;SDS011;11050;52.222;20.916;2022-08-26T01:08:58;9.30;;;4.47;;
21777;SDS011;11050;52.222;20.916;2022-08-26T01:11:24;10.27;;;4.40;;
21777;SDS011;11050;52.222;20.916;2022-08-26T01:13:53;10.98;;;4.38;;
21777;SDS011;11050;52.222;20.916;2022-08-26T01:16:23;7.95;;;4.53;;
21777;SDS011;11050;52.222;20.916;2022-08-26T01:18:49;9.55;;;4.82;;
21777;SDS011;11050;52.222;20.916;2022-08-26T01:21:27;9.43;;;4.45;;
21777;SDS011;11050;52.222;20.916;2022-08-26T01:24:08;7.25;;;4.32;;
21777;SDS011;11050;52.222;20.916;2022-08-26T01:26:37;11.70;;;4.53;;
21777;SDS011;11050;52.222;20.916;2022-08-26T01:29:07;10.13;;;4.93;;
21777;SDS011;11050;52.222;20.916;2022-08-26T01:31:41;9.38;;;4.53;;
21777;SDS011;11050;52.222;20.916;2022-08-26T01:34:30;10.23;;;4.70;;
21777;SDS011;11050;52.222;20.916;2022-08-26T01:37:22;10.10;;;4.50;;
21777;SDS011;11050;52.222;20.916;2022-08-26T01:39:53;10.27;;;4.70;;
21777;SDS011;11050;52.222;20.916;2022-08-26T01:42:21;9.40;;;3.92;;
21777;SDS011;11050;52.222;20.916;2022-08-26T01:44:51;11.07;;;4.35;;
21777;SDS011;11050;52.222;20.916;2022-08-26T01:47:44;11.40;;;5.15;;
21777;SDS011;11050;52.222;20.916;2022-08-26T01:50:14;7.97;;;4.55;;
21777;SDS011;11050;52.222;20.916;2022-08-26T01:52:46;10.77;;;4.20;;
21777;SDS011;11050;52.222;20.916;2022-08-26T01:55:14;7.68;;;4.65;;
21777;SDS011;11050;52.222;20.916;2022-08-26T01:57:44;10.63;;;4.95;;
21777;SDS011;11050;52.222;20.916;2022-08-26T02:00:15;10.80;;;5.05;;
21777;SDS011;11050;52.222;20.916;2022-08-26T02:02:43;10.77;;;4.60;;
21777;SDS011;11050;52.222;20.916;2022-08-26T02:05:16;10.10;;;4.88;;
21777;SDS011;11050;52.222;20.916;2022-08-26T02:07:44;10.55;;;4.60;;
21777;SDS011;11050;52.222;20.916;2022-08-26T02:10:12;14.82;;;5.15;;
21777;SDS011;11050;52.222;20.916;2022-08-26T02:12:39;9.43;;;4.63;;
21777;SDS011;11050;52.222;20.916;2022-08-26T02:15:07;11.73;;;4.88;;
21777;SDS011;11050;52.222;20.916;2022-08-26T02:17:37;9.82;;;4.47;;
21777;SDS011;11050;52.222;20.916;2022-08-26T02:20:13;9.85;;;4.70;;
21777;SDS011;11050;52.222;20.916;2022-08-26T02:22:43;11.07;;;5.22;;
21777;SDS011;11050;52.222;20.916;2022-08-26T02:25:30;9.57;;;4.55;;
21777;SDS011;11050;52.222;20.916;2022-08-26T02:28:10;9.95;;;4.60;;
21777;SDS011;11050;52.222;20.916;2022-08-26T02:30:38;8.32;;;4.60;;
21777;SDS011;11050;52.222;20.916;2022-08-26T02:33:05;11.32;;;4.30;;
21777;SDS011;11050;52.222;20.916;2022-08-26T02:35:32;8.18;;;4.47;;
21777;SDS011;11050;52.222;20.916;2022-08-26T02:37:59;12.20;;;4.97;;
21777;SDS011;11050;52.222;20.916;2022-08-26T02:40:29;11.52;;;4.65;;
21777;SDS011;11050;52.222;20.916;2022-08-26T02:42:59;11.55;;;4.57;;
21777;SDS011;11050;52.222;20.916;2022-08-26T02:45:25;9.73;;;4.07;;
21777;SDS011;11050;52.222;20.916;2022-08-26T02:47:53;9.55;;;4.30;;
21777;SDS011;11050;52.222;20.916;2022-08-26T02:50:22;11.10;;;4.97;;
21777;SDS011;11050;52.222;20.916;2022-08-26T02:52:49;7.63;;;4.43;;
21777;SDS011;11050;52.222;20.916;2022-08-26T02:55:15;10.38;;;4.28;;
21777;SDS011;11050;52.222;20.916;2022-08-26T02:57:42;8.82;;;4.45;;
21777;SDS011;11050;52.222;20.916;2022-08-26T03:00:08;8.90;;;4.97;;
21777;SDS011;11050;52.222;20.916;2022-08-26T03:02:38;12.35;;;4.80;;
21777;SDS011;11050;52.222;20.916;2022-08-26T03:05:04;14.88;;;5.22;;
21777;SDS011;11050;52.222;20.916;2022-08-26T03:07:31;9.05;;;4.68;;
21777;SDS011;11050;52.222;20.916;2022-08-26T03:09:57;7.50;;;4.53;;
21777;SDS011;11050;52.222;20.916;2022-08-26T03:12:23;12.75;;;4.97;;
21777;SDS011;11050;52.222;20.916;2022-08-26T03:14:49;10.18;;;5.00;;
21777;SDS011;11050;52.222;20.916;2022-08-26T03:17:15;8.85;;;5.28;;
21777;SDS011;11050;52.222;20.916;2022-08-26T03:19:41;8.38;;;4.93;;
21777;SDS011;11050;52.222;20.916;2022-08-26T03:22:07;10.65;;;4.80;;
21777;SDS011;11050;52.222;20.916;2022-08-26T03:24:34;8.32;;;5.00;;
21777;SDS011;11050;52.222;20.916;2022-08-26T03:27:00;13.98;;;5.22;;
21777;SDS011;11050;52.222;20.916;2022-08-26T03:29:27;6.57;;;4.45;;
21777;SDS011;11050;52.222;20.916;2022-08-26T03:32:11;9.00;;;5.18;;
21777;SDS011;11050;52.222;20.916;2022-08-26T03:34:37;14.23;;;5.45;;
21777;SDS011;11050;52.222;20.916;2022-08-26T03:37:03;16.13;;;5.43;;
21777;SDS011;11050;52.222;20.916;2022-08-26T03:39:29;14.43;;;5.43;;
21777;SDS011;11050;52.222;20.916;2022-08-26T03:41:54;12.02;;;4.70;;
21777;SDS011;11050;52.222;20.916;2022-08-26T03:44:21;11.45;;;5.13;;
21777;SDS011;11050;52.222;20.916;2022-08-26T03:46:47;15.13;;;4.70;;
21777;SDS011;11050;52.222;20.916;2022-08-26T03:49:13;10.70;;;5.07;;
21777;SDS011;11050;52.222;20.916;2022-08-26T03:51:39;11.18;;;5.25;;
21777;SDS011;11050;52.222;20.916;2022-08-26T03:54:05;13.98;;;5.20;;
21777;SDS011;11050;52.222;20.916;2022-08-26T03:56:32;7.82;;;4.68;;
21777;SDS011;11050;52.222;20.916;2022-08-26T03:58:58;7.85;;;4.72;;
21777;SDS011;11050;52.222;20.916;2022-08-26T04:01:25;10.10;;;5.07;;
21777;SDS011;11050;52.222;20.916;2022-08-26T04:03:52;9.35;;;5.13;;
21777;SDS011;11050;52.222;20.916;2022-08-26T04:06:22;7.00;;;4.82;;
21777;SDS011;11050;52.222;20.916;2022-08-26T04:09:04;8.98;;;4.88;;
21777;SDS011;11050;52.222;20.916;2022-08-26T04:11:34;14.05;;;5.18;;
21777;SDS011;11050;52.222;20.916;2022-08-26T04:14:04;8.32;;;4.90;;
21777;SDS011;11050;52.222;20.916;2022-08-26T04:16:33;9.52;;;5.60;;
21777;SDS011;11050;52.222;20.916;2022-08-26T04:18:59;12.98;;;5.13;;
21777;SDS011;11050;52.222;20.916;2022-08-26T04:21:26;14.15;;;4.30;;
21777;SDS011;11050;52.222;20.916;2022-08-26T04:23:53;10.00;;;4.55;;
21777;SDS011;11050;52.222;20.916;2022-08-26T04:26:21;12.85;;;4.72;;
21777;SDS011;11050;52.222;20.916;2022-08-26T04:28:48;8.00;;;4.25;;
21777;SDS011;11050;52.222;20.916;2022-08-26T04:31:17;11.98;;;4.80;;
21777;SDS011;11050;52.222;20.916;2022-08-26T04:33:44;10.63;;;4.60;;
21777;SDS011;11050;52.222;20.916;2022-08-26T04:36:12;14.55;;;5.25;;
21777;SDS011;11050;52.222;20.916;2022-08-26T04:38:38;9.65;;;5.28;;
21777;SDS011;11050;52.222;20.916;2022-08-26T04:41:07;9.75;;;5.70;;
21777;SDS011;11050;52.222;20.916;2022-08-26T04:43:35;7.25;;;4.70;;
21777;SDS011;11050;52.222;20.916;2022-08-26T04:46:03;16.00;;;6.15;;
21777;SDS011;11050;52.222;20.916;2022-08-26T04:48:31;12.18;;;6.38;;
21777;SDS011;11050;52.222;20.916;2022-08-26T04:50:58;11.80;;;6.40;;
21777;SDS011;11050;52.222;20.916;2022-08-26T04:53:25;11.00;;;6.45;;
21777;SDS011;11050;52.222;20.916;2022-08-26T04:55:52;15.52;;;6.80;;
21777;SDS011;11050;52.222;20.916;2022-08-26T04:58:19;13.45;;;7.03;;
21777;SDS011;11050;52.222;20.916;2022-08-26T05:00:47;14.15;;;6.60;;
21777;SDS011;11050;52.222;20.916;2022-08-26T05:03:16;9.05;;;6.28;;
21777;SDS011;11050;52.222;20.916;2022-08-26T05:05:43;13.10;;;6.75;;
21777;SDS011;11050;52.222;20.916;2022-08-26T05:08:12;12.70;;;6.72;;
21777;SDS011;11050;52.222;20.916;2022-08-26T05:10:47;13.02;;;7.10;;
21777;SDS011;11050;52.222;20.916;2022-08-26T05:13:20;11.43;;;6.40;;
21777;SDS011;11050;52.222;20.916;2022-08-26T05:15:50;15.32;;;7.38;;
21777;SDS011;11050;52.222;20.916;2022-08-26T05:18:17;13.00;;;6.93;;
21777;SDS011;11050;52.222;20.916;2022-08-26T05:20:46;15.65;;;6.93;;
21777;SDS011;11050;52.222;20.916;2022-08-26T05:23:16;13.98;;;6.07;;
21777;SDS011;11050;52.222;20.916;2022-08-26T05:25:44;15.88;;;6.60;;
21777;SDS011;11050;52.222;20.916;2022-08-26T05:28:14;12.45;;;6.63;;
21777;SDS011;11050;52.222;20.916;2022-08-26T05:30:42;11.68;;;6.05;;
21777;SDS011;11050;52.222;20.916;2022-08-26T05:33:08;14.77;;;7.28;;
21777;SDS011;11050;52.222;20.916;2022-08-26T05:35:35;21.75;;;6.57;;
21777;SDS011;11050;52.222;20.916;2022-08-26T05:38:04;13.82;;;6.10;;
21777;SDS011;11050;52.222;20.916;2022-08-26T05:40:33;11.57;;;6.50;;
21777;SDS011;11050;52.222;20.916;2022-08-26T05:43:06;15.13;;;6.60;;
21777;SDS011;11050;52.222;20.916;2022-08-26T05:45:37;12.32;;;6.05;;
21777;SDS011;11050;52.222;20.916;2022-08-26T05:48:06;13.38;;;6.20;;
21777;SDS011;11050;52.222;20.916;2022-08-26T05:50:36;14.68;;;6.35;;
21777;SDS011;11050;52.222;20.916;2022-08-26T05:53:10;11.05;;;6.30;;
21777;SDS011;11050;52.222;20.916;2022-08-26T05:55:41;12.40;;;6.50;;
21777;SDS011;11050;52.222;20.916;2022-08-26T05:58:16;12.45;;;6.40;;
21777;SDS011;11050;52.222;20.916;2022-08-26T06:00:45;11.50;;;5.85;;
21777;SDS011;11050;52.222;20.916;2022-08-26T06:03:21;12.93;;;5.78;;
21777;SDS011;11050;52.222;20.916;2022-08-26T06:05:47;14.48;;;6.38;;
21777;SDS011;11050;52.222;20.916;2022-08-26T06:08:12;11.15;;;6.13;;
21777;SDS011;11050;52.222;20.916;2022-08-26T06:10:45;13.20;;;6.10;;
21777;SDS011;11050;52.222;20.916;2022-08-26T06:13:25;17.27;;;6.35;;
21777;SDS011;11050;52.222;20.916;2022-08-26T06:15:53;13.52;;;6.32;;
21777;SDS011;11050;52.222;20.916;2022-08-26T06:18:23;16.50;;;6.15;;
21777;SDS011;11050;52.222;20.916;2022-08-26T06:20:56;10.70;;;6.22;;
21777;SDS011;11050;52.222;20.916;2022-08-26T06:23:24;13.35;;;5.53;;
21777;SDS011;11050;52.222;20.916;2022-08-26T06:26:12;16.98;;;5.28;;
21777;SDS011;11050;52.222;20.916;2022-08-26T06:28:40;12.73;;;5.13;;
21777;SDS011;11050;52.222;20.916;2022-08-26T06:31:08;16.02;;;5.55;;
21777;SDS011;11050;52.222;20.916;2022-08-26T06:33:33;17.67;;;5.57;;
21777;SDS011;11050;52.222;20.916;2022-08-26T06:35:59;12.93;;;5.55;;
21777;SDS011;11050;52.222;20.916;2022-08-26T06:38:25;12.10;;;4.97;;
21777;SDS011;11050;52.222;20.916;2022-08-26T06:40:52;11.40;;;5.10;;
21777;SDS011;11050;52.222;20.916;2022-08-26T06:43:19;16.85;;;5.50;;
21777;SDS011;11050;52.222;20.916;2022-08-26T06:45:48;14.18;;;6.28;;
21777;SDS011;11050;52.222;20.916;2022-08-26T06:48:16;12.32;;;5.93;;
21777;SDS011;11050;52.222;20.916;2022-08-26T06:50:44;11.40;;;5.22;;
21777;SDS011;11050;52.222;20.916;2022-08-26T06:53:11;19.40;;;6.07;;
21777;SDS011;11050;52.222;20.916;2022-08-26T06:55:41;14.70;;;5.13;;
21777;SDS011;11050;52.222;20.916;2022-08-26T06:58:10;12.15;;;5.30;;
21777;SDS011;11050;52.222;20.916;2022-08-26T07:00:38;16.98;;;5.68;;
21777;SDS011;11050;52.222;20.916;2022-08-26T07:03:05;15.35;;;6.20;;
21777;SDS011;11050;52.222;20.916;2022-08-26T07:05:32;13.05;;;5.70;;
21777;SDS011;11050;52.222;20.916;2022-08-26T07:07:59;11.70;;;5.55;;
21777;SDS011;11050;52.222;20.916;2022-08-26T07:10:26;12.48;;;5.60;;
21777;SDS011;11050;52.222;20.916;2022-08-26T07:12:51;9.95;;;5.47;;
21777;SDS011;11050;52.222;20.916;2022-08-26T07:15:18;12.90;;;5.30;;
21777;SDS011;11050;52.222;20.916;2022-08-26T07:17:44;14.07;;;5.82;;
21777;SDS011;11050;52.222;20.916;2022-08-26T07:20:10;11.43;;;5.28;;
21777;SDS011;11050;52.222;20.916;2022-08-26T07:22:36;12.60;;;6.18;;
21777;SDS011;11050;52.222;20.916;2022-08-26T07:25:04;22.48;;;6.53;;
21777;SDS011;11050;52.222;20.916;2022-08-26T07:27:33;15.52;;;6.40;;
21777;SDS011;11050;52.222;20.916;2022-08-26T07:30:00;13.88;;;6.50;;
21777;SDS011;11050;52.222;20.916;2022-08-26T07:32:28;13.52;;;6.65;;
21777;SDS011;11050;52.222;20.916;2022-08-26T07:34:54;17.92;;;6.07;;
21777;SDS011;11050;52.222;20.916;2022-08-26T07:37:20;12.73;;;6.28;;
21777;SDS011;11050;52.222;20.916;2022-08-26T07:39:46;15.88;;;6.40;;
21777;SDS011;11050;52.222;20.916;2022-08-26T07:42:13;12.57;;;6.07;;
21777;SDS011;11050;52.222;20.916;2022-08-26T07:44:41;12.05;;;5.88;;
21777;SDS011;11050;52.222;20.916;2022-08-26T07:47:08;12.88;;;5.85;;
21777;SDS011;11050;52.222;20.916;2022-08-26T07:49:36;13.10;;;5.57;;
21777;SDS011;11050;52.222;20.916;2022-08-26T07:52:03;16.40;;;6.63;;
21777;SDS011;11050;52.222;20.916;2022-08-26T07:54:29;17.15;;;6.50;;
21777;SDS011;11050;52.222;20.916;2022-08-26T07:56:55;16.70;;;6.15;;
21777;SDS011;11050;52.222;20.916;2022-08-26T07:59:22;12.82;;;6.47;;
21777;SDS011;11050;52.222;20.916;2022-08-26T08:01:48;12.18;;;5.68;;
21777;SDS011;11050;52.222;20.916;2022-08-26T08:04:15;14.02;;;5.60;;
21777;SDS011;11050;52.222;20.916;2022-08-26T08:06:43;21.33;;;6.70;;
21777;SDS011;11050;52.222;20.916;2022-08-26T08:09:11;14.10;;;5.63;;
21777;SDS011;11050;52.222;20.916;2022-08-26T08:11:39;18.27;;;6.15;;
21777;SDS011;11050;52.222;20.916;2022-08-26T08:14:05;13.68;;;6.13;;
21777;SDS011;11050;52.222;20.916;2022-08-26T08:16:32;10.82;;;5.32;;
21777;SDS011;11050;52.222;20.916;2022-08-26T08:18:58;14.48;;;6.03;;
21777;SDS011;11050;52.222;20.916;2022-08-26T08:21:24;16.92;;;5.85;;
21777;SDS011;11050;52.222;20.916;2022-08-26T08:23:52;14.40;;;6.35;;
21777;SDS011;11050;52.222;20.916;2022-08-26T08:26:21;16.13;;;5.85;;
21777;SDS011;11050;52.222;20.916;2022-08-26T08:28:52;14.43;;;6.32;;
21777;SDS011;11050;52.222;20.916;2022-08-26T08:31:20;14.63;;;5.93;;
21777;SDS011;11050;52.222;20.916;2022-08-26T08:33:53;12.32;;;5.70;;
21777;SDS011;11050;52.222;20.916;2022-08-26T08:36:19;16.90;;;6.53;;
21777;SDS011;11050;52.222;20.916;2022-08-26T08:38:46;13.52;;;5.75;;
21777;SDS011;11050;52.222;20.916;2022-08-26T08:41:37;13.70;;;6.13;;
21777;SDS011;11050;52.222;20.916;2022-08-26T08:44:20;12.23;;;6.30;;
21777;SDS011;11050;52.222;20.916;2022-08-26T08:46:57;11.60;;;5.40;;
21777;SDS011;11050;52.222;20.916;2022-08-26T08:49:29;9.80;;;5.45;;
21777;SDS011;11050;52.222;20.916;2022-08-26T08:52:43;12.68;;;5.43;;
21777;SDS011;11050;52.222;20.916;2022-08-26T08:54:53;11.43;;;5.68;;
21777;SDS011;11050;52.222;20.916;2022-08-26T08:57:23;12.40;;;5.88;;
21777;SDS011;11050;52.222;20.916;2022-08-26T09:00:16;11.35;;;5.65;;
21777;SDS011;11050;52.222;20.916;2022-08-26T09:05:29;16.98;;;5.88;;
21777;SDS011;11050;52.222;20.916;2022-08-26T09:08:10;10.52;;;6.47;;
21777;SDS011;11050;52.222;20.916;2022-08-26T09:13:20;10.00;;;5.75;;
21777;SDS011;11050;52.222;20.916;2022-08-26T09:21:28;11.73;;;5.70;;
21777;SDS011;11050;52.222;20.916;2022-08-26T09:23:55;14.18;;;6.90;;
21777;SDS011;11050;52.222;20.916;2022-08-26T09:29:19;13.65;;;6.40;;
21777;SDS011;11050;52.222;20.916;2022-08-26T09:31:52;18.75;;;6.70;;
21777;SDS011;11050;52.222;20.916;2022-08-26T09:37:48;13.68;;;6.13;;
21777;SDS011;11050;52.222;20.916;2022-08-26T09:43:05;19.70;;;6.53;;
21777;SDS011;11050;52.222;20.916;2022-08-26T09:45:44;13.65;;;6.10;;
21777;SDS011;11050;52.222;20.916;2022-08-26T09:48:23;17.80;;;6.75;;
21777;SDS011;11050;52.222;20.916;2022-08-26T09:50:59;12.90;;;6.60;;
21777;SDS011;11050;52.222;20.916;2022-08-26T09:53:34;14.20;;;6.57;;
21777;SDS011;11050;52.222;20.916;2022-08-26T09:56:32;15.55;;;6.82;;
21777;SDS011;11050;52.222;20.916;2022-08-26T09:59:01;13.65;;;6.97;;
21777;SDS011;11050;52.222;20.916;2022-08-26T10:01:35;18.50;;;6.88;;
21777;SDS011;11050;52.222;20.916;2022-08-26T10:04:10;11.95;;;6.75;;
21777;SDS011;11050;52.222;20.916;2022-08-26T10:07:00;11.88;;;6.47;;
21777;SDS011;11050;52.222;20.916;2022-08-26T10:09:28;13.13;;;5.82;;
21777;SDS011;11050;52.222;20.916;2022-08-26T10:12:05;11.88;;;6.28;;
21777;SDS011;11050;52.222;20.916;2022-08-26T10:14:45;11.55;;;6.22;;
21777;SDS011;11050;52.222;20.916;2022-08-26T10:17:35;13.77;;;6.68;;
21777;SDS011;11050;52.222;20.916;2022-08-26T10:20:27;10.57;;;6.18;;
21777;SDS011;11050;52.222;20.916;2022-08-26T10:23:06;13.38;;;5.90;;
21777;SDS011;11050;52.222;20.916;2022-08-26T10:25:55;9.82;;;6.03;;
21777;SDS011;11050;52.222;20.916;2022-08-26T10:28:42;9.85;;;6.38;;
21777;SDS011;11050;52.222;20.916;2022-08-26T10:34:23;9.70;;;6.10;;
21777;SDS011;11050;52.222;20.916;2022-08-26T10:36:52;12.80;;;6.38;;
21777;SDS011;11050;52.222;20.916;2022-08-26T10:39:40;12.27;;;6.03;;
21777;SDS011;11050;52.222;20.916;2022-08-26T10:42:21;13.10;;;6.32;;
21777;SDS011;11050;52.222;20.916;2022-08-26T10:44:57;11.95;;;6.15;;
21777;SDS011;11050;52.222;20.916;2022-08-26T10:48:00;10.38;;;6.10;;
21777;SDS011;11050;52.222;20.916;2022-08-26T10:50:34;10.40;;;5.72;;
21777;SDS011;11050;52.222;20.916;2022-08-26T10:53:50;8.75;;;5.60;;
21777;SDS011;11050;52.222;20.916;2022-08-26T11:01:45;9.77;;;5.57;;
21777;SDS011;11050;52.222;20.916;2022-08-26T11:15:11;10.25;;;6.38;;
21777;SDS011;11050;52.222;20.916;2022-08-26T11:17:58;14.40;;;6.97;;
21777;SDS011;11050;52.222;20.916;2022-08-26T11:20:38;9.13;;;6.55;;
21777;SDS011;11050;52.222;20.916;2022-08-26T11:28:38;12.57;;;6.15;;
21777;SDS011;11050;52.222;20.916;2022-08-26T11:33:49;10.80;;;6.22;;
21777;SDS011;11050;52.222;20.916;2022-08-26T11:36:35;10.32;;;6.32;;
21777;SDS011;11050;52.222;20.916;2022-08-26T11:42:02;11.45;;;6.53;;
21777;SDS011;11050;52.222;20.916;2022-08-26T11:44:44;10.23;;;6.40;;
21777;SDS011;11050;52.222;20.916;2022-08-26T11:47:11;8.88;;;6.30;;
21777;SDS011;11050;52.222;20.916;2022-08-26T11:49:41;8.15;;;5.95;;
21777;SDS011;11050;52.222;20.916;2022-08-26T11:52:15;14.82;;;5.88;;
21777;SDS011;11050;52.222;20.916;2022-08-26T11:55:05;10.82;;;6.25;;
21777;SDS011;11050;52.222;20.916;2022-08-26T11:57:44;12.40;;;6.55;;
21777;SDS011;11050;52.222;20.916;2022-08-26T12:00:22;12.82;;;6.22;;
21777;SDS011;11050;52.222;20.916;2022-08-26T12:02:51;9.18;;;6.63;;
21777;SDS011;11050;52.222;20.916;2022-08-26T12:05:21;13.45;;;6.65;;
21777;SDS011;11050;52.222;20.916;2022-08-26T12:08:05;9.75;;;6.05;;
21777;SDS011;11050;52.222;20.916;2022-08-26T12:10:35;13.68;;;5.95;;
21777;SDS011;11050;52.222;20.916;2022-08-26T12:13:03;14.52;;;6.35;;
21777;SDS011;11050;52.222;20.916;2022-08-26T12:15:31;10.23;;;5.60;;
21777;SDS011;11050;52.222;20.916;2022-08-26T12:18:19;8.68;;;5.97;;
21777;SDS011;11050;52.222;20.916;2022-08-26T12:20:48;8.93;;;6.03;;
21777;SDS011;11050;52.222;20.916;2022-08-26T12:29:00;7.57;;;6.22;;
21777;SDS011;11050;52.222;20.916;2022-08-26T12:31:42;11.77;;;6.15;;
21777;SDS011;11050;52.222;20.916;2022-08-26T12:34:09;12.05;;;6.05;;
21777;SDS011;11050;52.222;20.916;2022-08-26T12:36:42;9.85;;;6.28;;
21777;SDS011;11050;52.222;20.916;2022-08-26T12:39:24;9.20;;;6.20;;
21777;SDS011;11050;52.222;20.916;2022-08-26T12:42:01;6.97;;;5.60;;
21777;SDS011;11050;52.222;20.916;2022-08-26T12:52:28;11.02;;;5.70;;
21777;SDS011;11050;52.222;20.916;2022-08-26T12:55:10;9.98;;;5.97;;
21777;SDS011;11050;52.222;20.916;2022-08-26T12:57:47;9.25;;;5.93;;
21777;SDS011;11050;52.222;20.916;2022-08-26T13:03:00;13.57;;;6.40;;
21777;SDS011;11050;52.222;20.916;2022-08-26T13:05:28;10.77;;;5.80;;
21777;SDS011;11050;52.222;20.916;2022-08-26T13:08:15;8.13;;;5.63;;
21777;SDS011;11050;52.222;20.916;2022-08-26T13:11:03;10.93;;;5.88;;
21777;SDS011;11050;52.222;20.916;2022-08-26T13:13:45;8.95;;;5.35;;
21777;SDS011;11050;52.222;20.916;2022-08-26T13:16:20;16.65;;;5.50;;
21777;SDS011;11050;52.222;20.916;2022-08-26T13:18:59;12.02;;;6.05;;
21777;SDS011;11050;52.222;20.916;2022-08-26T13:21:30;10.20;;;5.95;;
21777;SDS011;11050;52.222;20.916;2022-08-26T13:24:09;10.10;;;5.78;;
21777;SDS011;11050;52.222;20.916;2022-08-26T13:26:40;8.32;;;6.28;;
21777;SDS011;11050;52.222;20.916;2022-08-26T13:29:10;9.75;;;6.22;;
21777;SDS011;11050;52.222;20.916;2022-08-26T13:31:37;8.48;;;5.60;;
21777;SDS011;11050;52.222;20.916;2022-08-26T13:34:06;8.93;;;5.53;;
21777;SDS011;11050;52.222;20.916;2022-08-26T13:36:34;7.75;;;6.18;;
21777;SDS011;11050;52.222;20.916;2022-08-26T13:39:00;14.80;;;6.35;;
21777;SDS011;11050;52.222;20.916;2022-08-26T13:41:27;10.15;;;6.05;;
21777;SDS011;11050;52.222;20.916;2022-08-26T13:43:53;11.30;;;6.10;;
21777;SDS011;11050;52.222;20.916;2022-08-26T13:46:18;9.00;;;5.97;;
21777;SDS011;11050;52.222;20.916;2022-08-26T13:48:45;12.15;;;6.78;;
21777;SDS011;11050;52.222;20.916;2022-08-26T13:51:11;9.02;;;6.20;;
21777;SDS011;11050;52.222;20.916;2022-08-26T13:53:37;11.18;;;7.10;;
21777;SDS011;11050;52.222;20.916;2022-08-26T13:56:03;9.25;;;6.75;;
21777;SDS011;11050;52.222;20.916;2022-08-26T13:58:29;10.82;;;6.88;;
21777;SDS011;11050;52.222;20.916;2022-08-26T14:00:55;11.43;;;7.10;;
21777;SDS011;11050;52.222;20.916;2022-08-26T14:03:22;11.20;;;7.10;;
21777;SDS011;11050;52.222;20.916;2022-08-26T14:05:49;11.18;;;7.45;;
21777;SDS011;11050;52.222;20.916;2022-08-26T14:08:17;12.57;;;7.70;;
21777;SDS011;11050;52.222;20.916;2022-08-26T14:10:44;10.30;;;6.85;;
21777;SDS011;11050;52.222;20.916;2022-08-26T14:13:11;9.35;;;7.15;;
21777;SDS011;11050;52.222;20.916;2022-08-26T14:15:38;8.35;;;6.95;;
21777;SDS011;11050;52.222;20.916;2022-08-26T14:18:05;13.88;;;7.32;;
21777;SDS011;11050;52.222;20.916;2022-08-26T14:20:34;11.82;;;7.38;;
21777;SDS011;11050;52.222;20.916;2022-08-26T14:23:02;9.70;;;7.05;;
21777;SDS011;11050;52.222;20.916;2022-08-26T14:25:28;11.50;;;7.68;;
21777;SDS011;11050;52.222;20.916;2022-08-26T14:27:57;14.68;;;7.35;;
21777;SDS011;11050;52.222;20.916;2022-08-26T14:30:23;16.55;;;7.80;;
21777;SDS011;11050;52.222;20.916;2022-08-26T14:32:50;12.30;;;7.60;;
21777;SDS011;11050;52.222;20.916;2022-08-26T14:35:22;11.48;;;7.43;;
21777;SDS011;11050;52.222;20.916;2022-08-26T14:37:52;11.45;;;7.40;;
21777;SDS011;11050;52.222;20.916;2022-08-26T14:40:19;10.20;;;7.22;;
21777;SDS011;11050;52.222;20.916;2022-08-26T14:42:49;10.98;;;7.80;;
21777;SDS011;11050;52.222;20.916;2022-08-26T14:45:19;11.43;;;7.07;;
21777;SDS011;11050;52.222;20.916;2022-08-26T14:47:48;13.13;;;7.80;;
21777;SDS011;11050;52.222;20.916;2022-08-26T14:50:18;9.68;;;7.45;;
21777;SDS011;11050;52.222;20.916;2022-08-26T14:52:48;12.10;;;7.70;;
21777;SDS011;11050;52.222;20.916;2022-08-26T14:55:34;12.93;;;7.80;;
21777;SDS011;11050;52.222;20.916;2022-08-26T14:58:04;11.48;;;7.38;;
21777;SDS011;11050;52.222;20.916;2022-08-26T15:00:30;10.02;;;7.88;;
21777;SDS011;11050;52.222;20.916;2022-08-26T15:02:57;8.88;;;7.38;;
21777;SDS011;11050;52.222;20.916;2022-08-26T15:05:23;13.40;;;7.93;;
21777;SDS011;11050;52.222;20.916;2022-08-26T15:07:49;9.40;;;8.07;;
21777;SDS011;11050;52.222;20.916;2022-08-26T15:10:15;12.63;;;7.53;;
21777;SDS011;11050;52.222;20.916;2022-08-26T15:12:42;11.85;;;8.27;;
21777;SDS011;11050;52.222;20.916;2022-08-26T15:15:09;10.52;;;7.20;;
21777;SDS011;11050;52.222;20.916;2022-08-26T15:17:40;10.63;;;7.38;;
21777;SDS011;11050;52.222;20.916;2022-08-26T15:20:07;12.60;;;7.95;;
21777;SDS011;11050;52.222;20.916;2022-08-26T15:22:34;12.55;;;7.35;;
21777;SDS011;11050;52.222;20.916;2022-08-26T15:25:02;12.60;;;7.10;;
21777;SDS011;11050;52.222;20.916;2022-08-26T15:27:30;9.65;;;7.05;;
21777;SDS011;11050;52.222;20.916;2022-08-26T15:29:56;14.13;;;7.57;;
21777;SDS011;11050;52.222;20.916;2022-08-26T15:32:22;10.70;;;7.25;;
21777;SDS011;11050;52.222;20.916;2022-08-26T15:34:48;12.82;;;7.97;;
21777;SDS011;11050;52.222;20.916;2022-08-26T15:37:14;12.40;;;7.32;;
21777;SDS011;11050;52.222;20.916;2022-08-26T15:39:40;13.23;;;7.55;;
21777;SDS011;11050;52.222;20.916;2022-08-26T15:42:06;11.13;;;7.53;;
21777;SDS011;11050;52.222;20.916;2022-08-26T15:44:32;11.00;;;7.90;;
21777;SDS011;11050;52.222;20.916;2022-08-26T15:46:58;11.13;;;7.40;;
21777;SDS011;11050;52.222;20.916;2022-08-26T15:49:24;12.43;;;7.45;;
21777;SDS011;11050;52.222;20.916;2022-08-26T15:51:51;10.50;;;7.25;;
21777;SDS011;11050;52.222;20.916;2022-08-26T15:54:19;9.02;;;7.60;;